<?xml version="1.0" encoding="UTF-8" standalone="no" ?>
<gpx xmlns="http://www.topografix.com/GPX/1/1" xmlns:xsi="http://www.w3.org/2001/XMLSchema-instance" xsi:schemaLocation="http://www.topografix.com/GPX/1/1 http://www.topografix.com/GPX/1/1/gpx.xsd" version="1.1" creator="VisuGPX - https://www.visugpx.com">
  <metadata>
    <name>Parcours Test eBike All Mountain PP 2022</name>
  </metadata>
  <trk>
    <name><![CDATA[Parcours Test eBikeAll Mountain - Trail Running Portes du Soleil]]></name>
    <extensions>
      <line xmlns="http://www.topografix.com/GPX/gpx_style/0/2">
        <color>0000FF</color>
        <width>4</width>
      </line>
    </extensions>
    <trkseg>
      <trkpt lat="46.15636" lon="6.66764">
        <ele>1168</ele>
        <time>2000-01-01T00:29:29.000Z</time>
      </trkpt>
      <trkpt lat="46.15614" lon="6.66788">
        <ele>1172</ele>
        <time>2000-01-01T00:29:39.000Z</time>
      </trkpt>
      <trkpt lat="46.15585" lon="6.6682">
        <ele>1180</ele>
        <time>2000-01-01T00:29:49.000Z</time>
      </trkpt>
      <trkpt lat="46.15561" lon="6.66861">
        <ele>1184</ele>
        <time>2000-01-01T00:29:59.000Z</time>
      </trkpt>
      <trkpt lat="46.15524" lon="6.66883">
        <ele>1188</ele>
        <time>2000-01-01T00:30:09.000Z</time>
      </trkpt>
      <trkpt lat="46.15497" lon="6.66901">
        <ele>1194</ele>
        <time>2000-01-01T00:30:19.000Z</time>
      </trkpt>
      <trkpt lat="46.15456" lon="6.66898">
        <ele>1198</ele>
        <time>2000-01-01T00:30:29.000Z</time>
      </trkpt>
      <trkpt lat="46.1542" lon="6.66907">
        <ele>1203</ele>
        <time>2000-01-01T00:30:39.000Z</time>
      </trkpt>
      <trkpt lat="46.15394" lon="6.66908">
        <ele>1205</ele>
        <time>2000-01-01T00:30:49.000Z</time>
      </trkpt>
      <trkpt lat="46.15373" lon="6.66919">
        <ele>1208</ele>
        <time>2000-01-01T00:30:59.000Z</time>
      </trkpt>
      <trkpt lat="46.15349" lon="6.66933">
        <ele>1212</ele>
        <time>2000-01-01T00:31:09.000Z</time>
      </trkpt>
      <trkpt lat="46.15334" lon="6.66953">
        <ele>1217</ele>
        <time>2000-01-01T00:31:19.000Z</time>
      </trkpt>
      <trkpt lat="46.15324" lon="6.66973">
        <ele>1222.4</ele>
        <time>2000-01-01T00:31:29.000Z</time>
      </trkpt>
      <trkpt lat="46.15319" lon="6.66986">
        <ele>1223</ele>
        <time>2000-01-01T00:31:39.000Z</time>
      </trkpt>
      <trkpt lat="46.15303" lon="6.67009">
        <ele>1226</ele>
        <time>2000-01-01T00:31:49.000Z</time>
      </trkpt>
      <trkpt lat="46.15276" lon="6.67017">
        <ele>1227</ele>
        <time>2000-01-01T00:31:59.000Z</time>
      </trkpt>
      <trkpt lat="46.15244" lon="6.67034">
        <ele>1227</ele>
        <time>2000-01-01T00:32:09.000Z</time>
      </trkpt>
      <trkpt lat="46.15212" lon="6.67064">
        <ele>1228</ele>
        <time>2000-01-01T00:32:19.000Z</time>
      </trkpt>
      <trkpt lat="46.15181" lon="6.67108">
        <ele>1229</ele>
        <time>2000-01-01T00:32:29.000Z</time>
      </trkpt>
      <trkpt lat="46.15165" lon="6.67134">
        <ele>1231</ele>
        <time>2000-01-01T00:32:39.000Z</time>
      </trkpt>
      <trkpt lat="46.15148" lon="6.67162">
        <ele>1234</ele>
        <time>2000-01-01T00:32:49.000Z</time>
      </trkpt>
      <trkpt lat="46.15125" lon="6.67182">
        <ele>1237</ele>
        <time>2000-01-01T00:32:59.000Z</time>
      </trkpt>
      <trkpt lat="46.15093" lon="6.67194">
        <ele>1238</ele>
        <time>2000-01-01T00:33:09.000Z</time>
      </trkpt>
      <trkpt lat="46.15072" lon="6.67225">
        <ele>1241</ele>
        <time>2000-01-01T00:33:19.000Z</time>
      </trkpt>
      <trkpt lat="46.15052" lon="6.67245">
        <ele>1243</ele>
        <time>2000-01-01T00:33:29.000Z</time>
      </trkpt>
      <trkpt lat="46.15032" lon="6.67266">
        <ele>1243</ele>
        <time>2000-01-01T00:33:39.000Z</time>
      </trkpt>
      <trkpt lat="46.15017" lon="6.67297">
        <ele>1246</ele>
        <time>2000-01-01T00:33:49.000Z</time>
      </trkpt>
      <trkpt lat="46.14999" lon="6.67337">
        <ele>1253</ele>
        <time>2000-01-01T00:33:59.000Z</time>
      </trkpt>
      <trkpt lat="46.14984" lon="6.67365">
        <ele>1259</ele>
        <time>2000-01-01T00:34:09.000Z</time>
      </trkpt>
      <trkpt lat="46.14967" lon="6.67396">
        <ele>1265</ele>
        <time>2000-01-01T00:34:19.000Z</time>
      </trkpt>
      <trkpt lat="46.14949" lon="6.67422">
        <ele>1270</ele>
        <time>2000-01-01T00:34:29.000Z</time>
      </trkpt>
      <trkpt lat="46.14926" lon="6.67454">
        <ele>1274</ele>
        <time>2000-01-01T00:34:39.000Z</time>
      </trkpt>
      <trkpt lat="46.14898" lon="6.67491">
        <ele>1279</ele>
        <time>2000-01-01T00:34:49.000Z</time>
      </trkpt>
      <trkpt lat="46.14887" lon="6.67523">
        <ele>1283</ele>
        <time>2000-01-01T00:34:59.000Z</time>
      </trkpt>
      <trkpt lat="46.14874" lon="6.67559">
        <ele>1289</ele>
        <time>2000-01-01T00:35:09.000Z</time>
      </trkpt>
      <trkpt lat="46.14866" lon="6.67589">
        <ele>1295</ele>
        <time>2000-01-01T00:35:19.000Z</time>
      </trkpt>
      <trkpt lat="46.14846" lon="6.67632">
        <ele>1302</ele>
        <time>2000-01-01T00:35:29.000Z</time>
      </trkpt>
      <trkpt lat="46.14819" lon="6.67649">
        <ele>1302</ele>
        <time>2000-01-01T00:35:39.000Z</time>
      </trkpt>
      <trkpt lat="46.14797" lon="6.67658">
        <ele>1304</ele>
        <time>2000-01-01T00:35:49.000Z</time>
      </trkpt>
      <trkpt lat="46.14774" lon="6.67668">
        <ele>1306</ele>
        <time>2000-01-01T00:35:59.000Z</time>
      </trkpt>
      <trkpt lat="46.14751" lon="6.67686">
        <ele>1311</ele>
        <time>2000-01-01T00:36:09.000Z</time>
      </trkpt>
      <trkpt lat="46.14721" lon="6.67708">
        <ele>1317</ele>
        <time>2000-01-01T00:36:19.000Z</time>
      </trkpt>
      <trkpt lat="46.14691" lon="6.67738">
        <ele>1322</ele>
        <time>2000-01-01T00:36:29.000Z</time>
      </trkpt>
      <trkpt lat="46.14671" lon="6.6777">
        <ele>1326</ele>
        <time>2000-01-01T00:36:39.000Z</time>
      </trkpt>
      <trkpt lat="46.14644" lon="6.67819">
        <ele>1331</ele>
        <time>2000-01-01T00:36:49.000Z</time>
      </trkpt>
      <trkpt lat="46.14614" lon="6.67856">
        <ele>1337</ele>
        <time>2000-01-01T00:36:59.000Z</time>
      </trkpt>
      <trkpt lat="46.1459" lon="6.67878">
        <ele>1340</ele>
        <time>2000-01-01T00:37:09.000Z</time>
      </trkpt>
      <trkpt lat="46.14553" lon="6.67913">
        <ele>1341</ele>
        <time>2000-01-01T00:37:19.000Z</time>
      </trkpt>
      <trkpt lat="46.14525" lon="6.6793">
        <ele>1343</ele>
        <time>2000-01-01T00:37:29.000Z</time>
      </trkpt>
      <trkpt lat="46.14473" lon="6.67963">
        <ele>1346</ele>
        <time>2000-01-01T00:37:39.000Z</time>
      </trkpt>
      <trkpt lat="46.14448" lon="6.67971">
        <ele>1346</ele>
        <time>2000-01-01T00:37:49.000Z</time>
      </trkpt>
      <trkpt lat="46.14416" lon="6.67982">
        <ele>1346</ele>
        <time>2000-01-01T00:37:59.000Z</time>
      </trkpt>
      <trkpt lat="46.14385" lon="6.67999">
        <ele>1346</ele>
        <time>2000-01-01T00:38:09.000Z</time>
      </trkpt>
      <trkpt lat="46.14354" lon="6.68017">
        <ele>1350</ele>
        <time>2000-01-01T00:38:19.000Z</time>
      </trkpt>
      <trkpt lat="46.14311" lon="6.68042">
        <ele>1353</ele>
        <time>2000-01-01T00:38:29.000Z</time>
      </trkpt>
      <trkpt lat="46.14285" lon="6.68057">
        <ele>1357</ele>
        <time>2000-01-01T00:38:39.000Z</time>
      </trkpt>
      <trkpt lat="46.14247" lon="6.6808">
        <ele>1362</ele>
        <time>2000-01-01T00:38:49.000Z</time>
      </trkpt>
      <trkpt lat="46.14217" lon="6.681">
        <ele>1363</ele>
        <time>2000-01-01T00:38:59.000Z</time>
      </trkpt>
      <trkpt lat="46.14188" lon="6.6812">
        <ele>1364</ele>
        <time>2000-01-01T00:39:09.000Z</time>
      </trkpt>
      <trkpt lat="46.14149" lon="6.68146">
        <ele>1367</ele>
        <time>2000-01-01T00:39:19.000Z</time>
      </trkpt>
      <trkpt lat="46.14123" lon="6.68162">
        <ele>1369</ele>
        <time>2000-01-01T00:39:29.000Z</time>
      </trkpt>
      <trkpt lat="46.14084" lon="6.68187">
        <ele>1375</ele>
        <time>2000-01-01T00:39:39.000Z</time>
      </trkpt>
      <trkpt lat="46.14065" lon="6.68216">
        <ele>1375</ele>
        <time>2000-01-01T00:39:49.000Z</time>
      </trkpt>
      <trkpt lat="46.14039" lon="6.68257">
        <ele>1376</ele>
        <time>2000-01-01T00:39:59.000Z</time>
      </trkpt>
      <trkpt lat="46.14004" lon="6.68271">
        <ele>1377</ele>
        <time>2000-01-01T00:40:09.000Z</time>
      </trkpt>
      <trkpt lat="46.1398" lon="6.68294">
        <ele>1377</ele>
        <time>2000-01-01T00:40:19.000Z</time>
      </trkpt>
      <trkpt lat="46.13944" lon="6.6833">
        <ele>1378</ele>
        <time>2000-01-01T00:40:29.000Z</time>
      </trkpt>
      <trkpt lat="46.13914" lon="6.68328">
        <ele>1381</ele>
        <time>2000-01-01T00:40:39.000Z</time>
      </trkpt>
      <trkpt lat="46.13855" lon="6.68324">
        <ele>1386</ele>
        <time>2000-01-01T00:40:49.000Z</time>
      </trkpt>
      <trkpt lat="46.13813" lon="6.68298">
        <ele>1387</ele>
        <time>2000-01-01T00:40:59.000Z</time>
      </trkpt>
      <trkpt lat="46.13781" lon="6.68317">
        <ele>1388</ele>
        <time>2000-01-01T00:41:09.000Z</time>
      </trkpt>
      <trkpt lat="46.1375" lon="6.6834">
        <ele>1388</ele>
        <time>2000-01-01T00:41:19.000Z</time>
      </trkpt>
      <trkpt lat="46.1372" lon="6.68315">
        <ele>1388</ele>
        <time>2000-01-01T00:41:29.000Z</time>
      </trkpt>
      <trkpt lat="46.13694" lon="6.68289">
        <ele>1391</ele>
        <time>2000-01-01T00:41:39.000Z</time>
      </trkpt>
      <trkpt lat="46.13669" lon="6.68318">
        <ele>1391</ele>
        <time>2000-01-01T00:41:49.000Z</time>
      </trkpt>
      <trkpt lat="46.13643" lon="6.68346">
        <ele>1393</ele>
        <time>2000-01-01T00:41:59.000Z</time>
      </trkpt>
      <trkpt lat="46.13614" lon="6.6838">
        <ele>1397</ele>
        <time>2000-01-01T00:42:09.000Z</time>
      </trkpt>
      <trkpt lat="46.13581" lon="6.68426">
        <ele>1402</ele>
        <time>2000-01-01T00:42:19.000Z</time>
      </trkpt>
      <trkpt lat="46.13555" lon="6.68441">
        <ele>1406</ele>
        <time>2000-01-01T00:42:29.000Z</time>
      </trkpt>
      <trkpt lat="46.13518" lon="6.68462">
        <ele>1413</ele>
        <time>2000-01-01T00:42:39.000Z</time>
      </trkpt>
      <trkpt lat="46.13494" lon="6.68469">
        <ele>1416</ele>
        <time>2000-01-01T00:42:49.000Z</time>
      </trkpt>
      <trkpt lat="46.13469" lon="6.68476">
        <ele>1421</ele>
        <time>2000-01-01T00:42:59.000Z</time>
      </trkpt>
      <trkpt lat="46.13423" lon="6.68471">
        <ele>1428</ele>
        <time>2000-01-01T00:43:09.000Z</time>
      </trkpt>
      <trkpt lat="46.13409" lon="6.68527">
        <ele>1432</ele>
        <time>2000-01-01T00:43:19.000Z</time>
      </trkpt>
      <trkpt lat="46.13412" lon="6.68565">
        <ele>1435</ele>
        <time>2000-01-01T00:43:29.000Z</time>
      </trkpt>
      <trkpt lat="46.13416" lon="6.68615">
        <ele>1436</ele>
        <time>2000-01-01T00:43:39.000Z</time>
      </trkpt>
      <trkpt lat="46.13444" lon="6.68654">
        <ele>1438</ele>
        <time>2000-01-01T00:43:49.000Z</time>
      </trkpt>
      <trkpt lat="46.13467" lon="6.68669">
        <ele>1438</ele>
        <time>2000-01-01T00:43:59.000Z</time>
      </trkpt>
      <trkpt lat="46.13493" lon="6.68687">
        <ele>1438</ele>
        <time>2000-01-01T00:44:09.000Z</time>
      </trkpt>
      <trkpt lat="46.13522" lon="6.68681">
        <ele>1439</ele>
        <time>2000-01-01T00:44:19.000Z</time>
      </trkpt>
      <trkpt lat="46.1357" lon="6.68671">
        <ele>1443</ele>
        <time>2000-01-01T00:44:29.000Z</time>
      </trkpt>
      <trkpt lat="46.13593" lon="6.68675">
        <ele>1444</ele>
        <time>2000-01-01T00:44:39.000Z</time>
      </trkpt>
      <trkpt lat="46.13617" lon="6.68679">
        <ele>1444</ele>
        <time>2000-01-01T00:44:49.000Z</time>
      </trkpt>
      <trkpt lat="46.13654" lon="6.68687">
        <ele>1446</ele>
        <time>2000-01-01T00:44:59.000Z</time>
      </trkpt>
      <trkpt lat="46.1369" lon="6.68695">
        <ele>1449</ele>
        <time>2000-01-01T00:45:09.000Z</time>
      </trkpt>
      <trkpt lat="46.13727" lon="6.68703">
        <ele>1449</ele>
        <time>2000-01-01T00:45:19.000Z</time>
      </trkpt>
      <trkpt lat="46.13792" lon="6.68717">
        <ele>1455</ele>
        <time>2000-01-01T00:45:29.000Z</time>
      </trkpt>
      <trkpt lat="46.13819" lon="6.68721">
        <ele>1458</ele>
        <time>2000-01-01T00:45:39.000Z</time>
      </trkpt>
      <trkpt lat="46.1384" lon="6.68749">
        <ele>1462</ele>
        <time>2000-01-01T00:45:49.000Z</time>
      </trkpt>
      <trkpt lat="46.13857" lon="6.68777">
        <ele>1465</ele>
        <time>2000-01-01T00:45:59.000Z</time>
      </trkpt>
      <trkpt lat="46.1387" lon="6.68782">
        <ele>1470.9</ele>
        <time>2000-01-01T00:46:09.000Z</time>
      </trkpt>
      <trkpt lat="46.13891" lon="6.68777">
        <ele>1473</ele>
        <time>2000-01-01T00:46:19.000Z</time>
      </trkpt>
      <trkpt lat="46.13918" lon="6.68779">
        <ele>1475</ele>
        <time>2000-01-01T00:46:29.000Z</time>
      </trkpt>
      <trkpt lat="46.13941" lon="6.68802">
        <ele>1479</ele>
        <time>2000-01-01T00:46:39.000Z</time>
      </trkpt>
      <trkpt lat="46.13954" lon="6.68808">
        <ele>1481.5</ele>
        <time>2000-01-01T00:46:49.000Z</time>
      </trkpt>
      <trkpt lat="46.13996" lon="6.68767">
        <ele>1480</ele>
        <time>2000-01-01T00:46:59.000Z</time>
      </trkpt>
      <trkpt lat="46.14022" lon="6.68744">
        <ele>1481</ele>
        <time>2000-01-01T00:47:09.000Z</time>
      </trkpt>
      <trkpt lat="46.1405" lon="6.68748">
        <ele>1483</ele>
        <time>2000-01-01T00:47:19.000Z</time>
      </trkpt>
      <trkpt lat="46.14074" lon="6.68764">
        <ele>1485</ele>
        <time>2000-01-01T00:47:29.000Z</time>
      </trkpt>
      <trkpt lat="46.14103" lon="6.68783">
        <ele>1486</ele>
        <time>2000-01-01T00:47:39.000Z</time>
      </trkpt>
      <trkpt lat="46.1413" lon="6.68782">
        <ele>1486</ele>
        <time>2000-01-01T00:47:49.000Z</time>
      </trkpt>
      <trkpt lat="46.14167" lon="6.68779">
        <ele>1485</ele>
        <time>2000-01-01T00:47:59.000Z</time>
      </trkpt>
      <trkpt lat="46.14187" lon="6.68761">
        <ele>1485</ele>
        <time>2000-01-01T00:48:09.000Z</time>
      </trkpt>
      <trkpt lat="46.14206" lon="6.68741">
        <ele>1488</ele>
        <time>2000-01-01T00:48:19.000Z</time>
      </trkpt>
      <trkpt lat="46.14239" lon="6.68745">
        <ele>1490</ele>
        <time>2000-01-01T00:48:29.000Z</time>
      </trkpt>
      <trkpt lat="46.14273" lon="6.68749">
        <ele>1492</ele>
        <time>2000-01-01T00:48:39.000Z</time>
      </trkpt>
      <trkpt lat="46.14324" lon="6.68755">
        <ele>1494</ele>
        <time>2000-01-01T00:48:49.000Z</time>
      </trkpt>
      <trkpt lat="46.14339" lon="6.68764">
        <ele>1496.5</ele>
        <time>2000-01-01T00:48:59.000Z</time>
      </trkpt>
      <trkpt lat="46.14423" lon="6.68709">
        <ele>1495</ele>
        <time>2000-01-01T00:49:09.000Z</time>
      </trkpt>
      <trkpt lat="46.14447" lon="6.68702">
        <ele>1495</ele>
        <time>2000-01-01T00:49:19.000Z</time>
      </trkpt>
      <trkpt lat="46.14455" lon="6.68696">
        <ele>1499.8</ele>
        <time>2000-01-01T00:49:29.000Z</time>
      </trkpt>
      <trkpt lat="46.14468" lon="6.68682">
        <ele>1494</ele>
        <time>2000-01-01T00:49:39.000Z</time>
      </trkpt>
      <trkpt lat="46.14474" lon="6.68674">
        <ele>1497.9</ele>
        <time>2000-01-01T00:49:49.000Z</time>
      </trkpt>
      <trkpt lat="46.14483" lon="6.68655">
        <ele>1494</ele>
        <time>2000-01-01T00:49:59.000Z</time>
      </trkpt>
      <trkpt lat="46.14485" lon="6.6864">
        <ele>1495.3</ele>
        <time>2000-01-01T00:50:09.000Z</time>
      </trkpt>
      <trkpt lat="46.14483" lon="6.68619">
        <ele>1492</ele>
        <time>2000-01-01T00:50:19.000Z</time>
      </trkpt>
      <trkpt lat="46.14484" lon="6.68579">
        <ele>1491</ele>
        <time>2000-01-01T00:50:29.000Z</time>
      </trkpt>
      <trkpt lat="46.14474" lon="6.68572">
        <ele>1489.5</ele>
        <time>2000-01-01T00:50:39.000Z</time>
      </trkpt>
      <trkpt lat="46.14473" lon="6.68562">
        <ele>1490</ele>
        <time>2000-01-01T00:50:49.000Z</time>
      </trkpt>
      <trkpt lat="46.14474" lon="6.68553">
        <ele>1490.5</ele>
        <time>2000-01-01T00:50:59.000Z</time>
      </trkpt>
      <trkpt lat="46.14482" lon="6.68536">
        <ele>1490</ele>
        <time>2000-01-01T00:51:09.000Z</time>
      </trkpt>
      <trkpt lat="46.14482" lon="6.68528">
        <ele>1491.5</ele>
        <time>2000-01-01T00:51:19.000Z</time>
      </trkpt>
      <trkpt lat="46.14477" lon="6.68525">
        <ele>1489.2</ele>
        <time>2000-01-01T00:51:29.000Z</time>
      </trkpt>
      <trkpt lat="46.14476" lon="6.68512">
        <ele>1484</ele>
        <time>2000-01-01T00:51:39.000Z</time>
      </trkpt>
      <trkpt lat="46.14487" lon="6.68488">
        <ele>1482</ele>
        <time>2000-01-01T00:51:49.000Z</time>
      </trkpt>
      <trkpt lat="46.14487" lon="6.68476">
        <ele>1484.5</ele>
        <time>2000-01-01T00:51:59.000Z</time>
      </trkpt>
      <trkpt lat="46.14485" lon="6.68472">
        <ele>1483.1</ele>
        <time>2000-01-01T00:52:09.000Z</time>
      </trkpt>
      <trkpt lat="46.14486" lon="6.68465">
        <ele>1482</ele>
        <time>2000-01-01T00:52:19.000Z</time>
      </trkpt>
      <trkpt lat="46.14494" lon="6.68447">
        <ele>1477</ele>
        <time>2000-01-01T00:52:29.000Z</time>
      </trkpt>
      <trkpt lat="46.14494" lon="6.68437">
        <ele>1478.5</ele>
        <time>2000-01-01T00:52:39.000Z</time>
      </trkpt>
      <trkpt lat="46.14492" lon="6.68431">
        <ele>1476.6</ele>
        <time>2000-01-01T00:52:49.000Z</time>
      </trkpt>
      <trkpt lat="46.1449" lon="6.68423">
        <ele>1474.3</ele>
        <time>2000-01-01T00:52:59.000Z</time>
      </trkpt>
      <trkpt lat="46.14493" lon="6.68414">
        <ele>1471</ele>
        <time>2000-01-01T00:53:09.000Z</time>
      </trkpt>
      <trkpt lat="46.14499" lon="6.68405">
        <ele>1472.3</ele>
        <time>2000-01-01T00:53:19.000Z</time>
      </trkpt>
      <trkpt lat="46.14509" lon="6.68377">
        <ele>1464</ele>
        <time>2000-01-01T00:53:29.000Z</time>
      </trkpt>
      <trkpt lat="46.14511" lon="6.68352">
        <ele>1464.3</ele>
        <time>2000-01-01T00:53:39.000Z</time>
      </trkpt>
      <trkpt lat="46.14511" lon="6.68342">
        <ele>1461</ele>
        <time>2000-01-01T00:53:49.000Z</time>
      </trkpt>
      <trkpt lat="46.1449" lon="6.68339">
        <ele>1457</ele>
        <time>2000-01-01T00:53:59.000Z</time>
      </trkpt>
      <trkpt lat="46.14472" lon="6.68345">
        <ele>1455</ele>
        <time>2000-01-01T00:54:09.000Z</time>
      </trkpt>
      <trkpt lat="46.14461" lon="6.68344">
        <ele>1455.2</ele>
        <time>2000-01-01T00:54:19.000Z</time>
      </trkpt>
      <trkpt lat="46.14413" lon="6.68353">
        <ele>1451</ele>
        <time>2000-01-01T00:54:29.000Z</time>
      </trkpt>
      <trkpt lat="46.14394" lon="6.68367">
        <ele>1448</ele>
        <time>2000-01-01T00:54:39.000Z</time>
      </trkpt>
      <trkpt lat="46.14377" lon="6.68385">
        <ele>1446</ele>
        <time>2000-01-01T00:54:49.000Z</time>
      </trkpt>
      <trkpt lat="46.14363" lon="6.68394">
        <ele>1447.1</ele>
        <time>2000-01-01T00:54:59.000Z</time>
      </trkpt>
      <trkpt lat="46.14345" lon="6.68408">
        <ele>1443</ele>
        <time>2000-01-01T00:55:09.000Z</time>
      </trkpt>
      <trkpt lat="46.14334" lon="6.68413">
        <ele>1444.3</ele>
        <time>2000-01-01T00:55:19.000Z</time>
      </trkpt>
      <trkpt lat="46.14334" lon="6.68408">
        <ele>1443.3</ele>
        <time>2000-01-01T00:55:29.000Z</time>
      </trkpt>
      <trkpt lat="46.14338" lon="6.684">
        <ele>1442</ele>
        <time>2000-01-01T00:55:39.000Z</time>
      </trkpt>
      <trkpt lat="46.14346" lon="6.68393">
        <ele>1442.9</ele>
        <time>2000-01-01T00:55:49.000Z</time>
      </trkpt>
      <trkpt lat="46.14351" lon="6.68391">
        <ele>1443.8</ele>
        <time>2000-01-01T00:55:59.000Z</time>
      </trkpt>
      <trkpt lat="46.14354" lon="6.68387">
        <ele>1441</ele>
        <time>2000-01-01T00:56:09.000Z</time>
      </trkpt>
      <trkpt lat="46.14357" lon="6.68381">
        <ele>1443.8</ele>
        <time>2000-01-01T00:56:19.000Z</time>
      </trkpt>
      <trkpt lat="46.14359" lon="6.68374">
        <ele>1443.3</ele>
        <time>2000-01-01T00:56:29.000Z</time>
      </trkpt>
      <trkpt lat="46.14351" lon="6.68375">
        <ele>1441.3</ele>
        <time>2000-01-01T00:56:39.000Z</time>
      </trkpt>
      <trkpt lat="46.14346" lon="6.68384">
        <ele>1439</ele>
        <time>2000-01-01T00:56:49.000Z</time>
      </trkpt>
      <trkpt lat="46.1434" lon="6.6839">
        <ele>1440.9</ele>
        <time>2000-01-01T00:56:59.000Z</time>
      </trkpt>
      <trkpt lat="46.14336" lon="6.68394">
        <ele>1440.7</ele>
        <time>2000-01-01T00:57:09.000Z</time>
      </trkpt>
      <trkpt lat="46.14332" lon="6.68395">
        <ele>1440</ele>
        <time>2000-01-01T00:57:19.000Z</time>
      </trkpt>
      <trkpt lat="46.14331" lon="6.68391">
        <ele>1438</ele>
        <time>2000-01-01T00:57:29.000Z</time>
      </trkpt>
      <trkpt lat="46.14333" lon="6.68386">
        <ele>1438.4</ele>
        <time>2000-01-01T00:57:39.000Z</time>
      </trkpt>
      <trkpt lat="46.1434" lon="6.68377">
        <ele>1438.6</ele>
        <time>2000-01-01T00:57:49.000Z</time>
      </trkpt>
      <trkpt lat="46.14341" lon="6.68373">
        <ele>1438.2</ele>
        <time>2000-01-01T00:57:59.000Z</time>
      </trkpt>
      <trkpt lat="46.14341" lon="6.68368">
        <ele>1436</ele>
        <time>2000-01-01T00:58:09.000Z</time>
      </trkpt>
      <trkpt lat="46.14334" lon="6.68372">
        <ele>1436.1</ele>
        <time>2000-01-01T00:58:19.000Z</time>
      </trkpt>
      <trkpt lat="46.14297" lon="6.68405">
        <ele>1433</ele>
        <time>2000-01-01T00:58:29.000Z</time>
      </trkpt>
      <trkpt lat="46.14278" lon="6.68409">
        <ele>1433</ele>
        <time>2000-01-01T00:58:39.000Z</time>
      </trkpt>
      <trkpt lat="46.14274" lon="6.684">
        <ele>1433.9</ele>
        <time>2000-01-01T00:58:49.000Z</time>
      </trkpt>
      <trkpt lat="46.14266" lon="6.68372">
        <ele>1427</ele>
        <time>2000-01-01T00:58:59.000Z</time>
      </trkpt>
      <trkpt lat="46.14262" lon="6.68361">
        <ele>1425</ele>
        <time>2000-01-01T00:59:09.000Z</time>
      </trkpt>
      <trkpt lat="46.1426" lon="6.68353">
        <ele>1423.5</ele>
        <time>2000-01-01T00:59:19.000Z</time>
      </trkpt>
      <trkpt lat="46.14208" lon="6.68343">
        <ele>1417</ele>
        <time>2000-01-01T00:59:29.000Z</time>
      </trkpt>
      <trkpt lat="46.14187" lon="6.68343">
        <ele>1416</ele>
        <time>2000-01-01T00:59:39.000Z</time>
      </trkpt>
      <trkpt lat="46.14171" lon="6.68345">
        <ele>1417.6</ele>
        <time>2000-01-01T00:59:49.000Z</time>
      </trkpt>
      <trkpt lat="46.14151" lon="6.68338">
        <ele>1411</ele>
        <time>2000-01-01T00:59:59.000Z</time>
      </trkpt>
      <trkpt lat="46.14136" lon="6.68335">
        <ele>1411.1</ele>
        <time>2000-01-01T01:00:09.000Z</time>
      </trkpt>
      <trkpt lat="46.14108" lon="6.68334">
        <ele>1404</ele>
        <time>2000-01-01T01:00:19.000Z</time>
      </trkpt>
      <trkpt lat="46.14091" lon="6.68339">
        <ele>1404.7</ele>
        <time>2000-01-01T01:00:29.000Z</time>
      </trkpt>
      <trkpt lat="46.14075" lon="6.68337">
        <ele>1399</ele>
        <time>2000-01-01T01:00:39.000Z</time>
      </trkpt>
      <trkpt lat="46.14071" lon="6.68326">
        <ele>1398.8</ele>
        <time>2000-01-01T01:00:49.000Z</time>
      </trkpt>
      <trkpt lat="46.14079" lon="6.6831">
        <ele>1395</ele>
        <time>2000-01-01T01:00:59.000Z</time>
      </trkpt>
      <trkpt lat="46.14098" lon="6.68292">
        <ele>1393</ele>
        <time>2000-01-01T01:01:09.000Z</time>
      </trkpt>
      <trkpt lat="46.1412" lon="6.68279">
        <ele>1389</ele>
        <time>2000-01-01T01:01:19.000Z</time>
      </trkpt>
      <trkpt lat="46.14153" lon="6.68251">
        <ele>1386</ele>
        <time>2000-01-01T01:01:29.000Z</time>
      </trkpt>
      <trkpt lat="46.14161" lon="6.68231">
        <ele>1383.9</ele>
        <time>2000-01-01T01:01:39.000Z</time>
      </trkpt>
      <trkpt lat="46.14173" lon="6.68199">
        <ele>1376</ele>
        <time>2000-01-01T01:01:49.000Z</time>
      </trkpt>
      <trkpt lat="46.14208" lon="6.68171">
        <ele>1374</ele>
        <time>2000-01-01T01:01:59.000Z</time>
      </trkpt>
      <trkpt lat="46.14229" lon="6.68145">
        <ele>1372</ele>
        <time>2000-01-01T01:02:09.000Z</time>
      </trkpt>
      <trkpt lat="46.14238" lon="6.6813">
        <ele>1369.8</ele>
        <time>2000-01-01T01:02:19.000Z</time>
      </trkpt>
      <trkpt lat="46.14263" lon="6.68125">
        <ele>1372</ele>
        <time>2000-01-01T01:02:29.000Z</time>
      </trkpt>
      <trkpt lat="46.14281" lon="6.68136">
        <ele>1372</ele>
        <time>2000-01-01T01:02:39.000Z</time>
      </trkpt>
      <trkpt lat="46.14289" lon="6.68136">
        <ele>1376.1</ele>
        <time>2000-01-01T01:02:49.000Z</time>
      </trkpt>
      <trkpt lat="46.14296" lon="6.68123">
        <ele>1372</ele>
        <time>2000-01-01T01:02:59.000Z</time>
      </trkpt>
      <trkpt lat="46.14295" lon="6.68111">
        <ele>1371.8</ele>
        <time>2000-01-01T01:03:09.000Z</time>
      </trkpt>
      <trkpt lat="46.143" lon="6.68082">
        <ele>1366</ele>
        <time>2000-01-01T01:03:19.000Z</time>
      </trkpt>
      <trkpt lat="46.14323" lon="6.68059">
        <ele>1361</ele>
        <time>2000-01-01T01:03:29.000Z</time>
      </trkpt>
      <trkpt lat="46.14358" lon="6.68042">
        <ele>1358</ele>
        <time>2000-01-01T01:03:39.000Z</time>
      </trkpt>
      <trkpt lat="46.14392" lon="6.68021">
        <ele>1356</ele>
        <time>2000-01-01T01:03:49.000Z</time>
      </trkpt>
      <trkpt lat="46.14437" lon="6.68009">
        <ele>1355</ele>
        <time>2000-01-01T01:03:59.000Z</time>
      </trkpt>
      <trkpt lat="46.1446" lon="6.67998">
        <ele>1355</ele>
        <time>2000-01-01T01:04:09.000Z</time>
      </trkpt>
      <trkpt lat="46.14487" lon="6.67985">
        <ele>1355</ele>
        <time>2000-01-01T01:04:19.000Z</time>
      </trkpt>
      <trkpt lat="46.14509" lon="6.67969">
        <ele>1353</ele>
        <time>2000-01-01T01:04:29.000Z</time>
      </trkpt>
      <trkpt lat="46.14529" lon="6.67957">
        <ele>1351</ele>
        <time>2000-01-01T01:04:39.000Z</time>
      </trkpt>
      <trkpt lat="46.14557" lon="6.67926">
        <ele>1346</ele>
        <time>2000-01-01T01:04:49.000Z</time>
      </trkpt>
      <trkpt lat="46.14577" lon="6.67908">
        <ele>1344</ele>
        <time>2000-01-01T01:04:59.000Z</time>
      </trkpt>
      <trkpt lat="46.14597" lon="6.67889">
        <ele>1343</ele>
        <time>2000-01-01T01:05:09.000Z</time>
      </trkpt>
      <trkpt lat="46.14622" lon="6.67863">
        <ele>1342</ele>
        <time>2000-01-01T01:05:19.000Z</time>
      </trkpt>
      <trkpt lat="46.14644" lon="6.67834">
        <ele>1336</ele>
        <time>2000-01-01T01:05:29.000Z</time>
      </trkpt>
      <trkpt lat="46.14685" lon="6.67781">
        <ele>1331</ele>
        <time>2000-01-01T01:05:39.000Z</time>
      </trkpt>
      <trkpt lat="46.1471" lon="6.67744">
        <ele>1325</ele>
        <time>2000-01-01T01:05:49.000Z</time>
      </trkpt>
      <trkpt lat="46.14736" lon="6.67718">
        <ele>1319</ele>
        <time>2000-01-01T01:05:59.000Z</time>
      </trkpt>
      <trkpt lat="46.14758" lon="6.67703">
        <ele>1317</ele>
        <time>2000-01-01T01:06:09.000Z</time>
      </trkpt>
      <trkpt lat="46.14766" lon="6.67699">
        <ele>1316.7</ele>
        <time>2000-01-01T01:06:19.000Z</time>
      </trkpt>
      <trkpt lat="46.14773" lon="6.67704">
        <ele>1317.9</ele>
        <time>2000-01-01T01:06:29.000Z</time>
      </trkpt>
      <trkpt lat="46.14785" lon="6.677">
        <ele>1316</ele>
        <time>2000-01-01T01:06:39.000Z</time>
      </trkpt>
      <trkpt lat="46.1479" lon="6.67688">
        <ele>1313</ele>
        <time>2000-01-01T01:06:49.000Z</time>
      </trkpt>
      <trkpt lat="46.14799" lon="6.67677">
        <ele>1308</ele>
        <time>2000-01-01T01:06:59.000Z</time>
      </trkpt>
      <trkpt lat="46.14807" lon="6.67676">
        <ele>1310.1</ele>
        <time>2000-01-01T01:07:09.000Z</time>
      </trkpt>
      <trkpt lat="46.14811" lon="6.6768">
        <ele>1311</ele>
        <time>2000-01-01T01:07:19.000Z</time>
      </trkpt>
      <trkpt lat="46.14816" lon="6.67683">
        <ele>1311.7</ele>
        <time>2000-01-01T01:07:29.000Z</time>
      </trkpt>
      <trkpt lat="46.14818" lon="6.67679">
        <ele>1308</ele>
        <time>2000-01-01T01:07:39.000Z</time>
      </trkpt>
      <trkpt lat="46.14824" lon="6.67669">
        <ele>1309.1</ele>
        <time>2000-01-01T01:07:49.000Z</time>
      </trkpt>
      <trkpt lat="46.14838" lon="6.67664">
        <ele>1307</ele>
        <time>2000-01-01T01:07:59.000Z</time>
      </trkpt>
      <trkpt lat="46.14845" lon="6.67666">
        <ele>1310.9</ele>
        <time>2000-01-01T01:08:09.000Z</time>
      </trkpt>
      <trkpt lat="46.14858" lon="6.67656">
        <ele>1306</ele>
        <time>2000-01-01T01:08:19.000Z</time>
      </trkpt>
      <trkpt lat="46.14865" lon="6.67645">
        <ele>1309.4</ele>
        <time>2000-01-01T01:08:29.000Z</time>
      </trkpt>
      <trkpt lat="46.14888" lon="6.67602">
        <ele>1302</ele>
        <time>2000-01-01T01:08:39.000Z</time>
      </trkpt>
      <trkpt lat="46.14902" lon="6.67583">
        <ele>1301</ele>
        <time>2000-01-01T01:08:49.000Z</time>
      </trkpt>
      <trkpt lat="46.14916" lon="6.67577">
        <ele>1302.3</ele>
        <time>2000-01-01T01:08:59.000Z</time>
      </trkpt>
      <trkpt lat="46.1493" lon="6.67559">
        <ele>1296</ele>
        <time>2000-01-01T01:09:09.000Z</time>
      </trkpt>
      <trkpt lat="46.14949" lon="6.67549">
        <ele>1296</ele>
        <time>2000-01-01T01:09:19.000Z</time>
      </trkpt>
      <trkpt lat="46.14961" lon="6.67552">
        <ele>1298</ele>
        <time>2000-01-01T01:09:29.000Z</time>
      </trkpt>
      <trkpt lat="46.1501" lon="6.67555">
        <ele>1295</ele>
        <time>2000-01-01T01:09:39.000Z</time>
      </trkpt>
      <trkpt lat="46.15023" lon="6.67557">
        <ele>1297</ele>
        <time>2000-01-01T01:09:49.000Z</time>
      </trkpt>
      <trkpt lat="46.15038" lon="6.67553">
        <ele>1294</ele>
        <time>2000-01-01T01:09:59.000Z</time>
      </trkpt>
      <trkpt lat="46.15039" lon="6.67547">
        <ele>1291.9</ele>
        <time>2000-01-01T01:10:09.000Z</time>
      </trkpt>
      <trkpt lat="46.15027" lon="6.67537">
        <ele>1290.7</ele>
        <time>2000-01-01T01:10:19.000Z</time>
      </trkpt>
      <trkpt lat="46.15016" lon="6.67536">
        <ele>1289</ele>
        <time>2000-01-01T01:10:29.000Z</time>
      </trkpt>
      <trkpt lat="46.15011" lon="6.67528">
        <ele>1289.3</ele>
        <time>2000-01-01T01:10:39.000Z</time>
      </trkpt>
      <trkpt lat="46.15019" lon="6.67516">
        <ele>1285</ele>
        <time>2000-01-01T01:10:49.000Z</time>
      </trkpt>
      <trkpt lat="46.15027" lon="6.67512">
        <ele>1284.1</ele>
        <time>2000-01-01T01:10:59.000Z</time>
      </trkpt>
      <trkpt lat="46.15055" lon="6.67505">
        <ele>1278</ele>
        <time>2000-01-01T01:11:09.000Z</time>
      </trkpt>
      <trkpt lat="46.15089" lon="6.6751">
        <ele>1277</ele>
        <time>2000-01-01T01:11:19.000Z</time>
      </trkpt>
      <trkpt lat="46.15124" lon="6.67515">
        <ele>1274</ele>
        <time>2000-01-01T01:11:29.000Z</time>
      </trkpt>
      <trkpt lat="46.15188" lon="6.67526">
        <ele>1271</ele>
        <time>2000-01-01T01:11:39.000Z</time>
      </trkpt>
      <trkpt lat="46.15224" lon="6.67522">
        <ele>1267</ele>
        <time>2000-01-01T01:11:49.000Z</time>
      </trkpt>
      <trkpt lat="46.1526" lon="6.67518">
        <ele>1262</ele>
        <time>2000-01-01T01:11:59.000Z</time>
      </trkpt>
      <trkpt lat="46.15295" lon="6.67515">
        <ele>1259</ele>
        <time>2000-01-01T01:12:09.000Z</time>
      </trkpt>
      <trkpt lat="46.15339" lon="6.6751">
        <ele>1256</ele>
        <time>2000-01-01T01:12:19.000Z</time>
      </trkpt>
      <trkpt lat="46.15373" lon="6.67496">
        <ele>1252</ele>
        <time>2000-01-01T01:12:29.000Z</time>
      </trkpt>
      <trkpt lat="46.15395" lon="6.67477">
        <ele>1249</ele>
        <time>2000-01-01T01:12:39.000Z</time>
      </trkpt>
      <trkpt lat="46.15406" lon="6.67447">
        <ele>1246</ele>
        <time>2000-01-01T01:12:49.000Z</time>
      </trkpt>
      <trkpt lat="46.15418" lon="6.67416">
        <ele>1244</ele>
        <time>2000-01-01T01:12:59.000Z</time>
      </trkpt>
      <trkpt lat="46.15438" lon="6.67387">
        <ele>1241</ele>
        <time>2000-01-01T01:13:09.000Z</time>
      </trkpt>
      <trkpt lat="46.15458" lon="6.67342">
        <ele>1239</ele>
        <time>2000-01-01T01:13:19.000Z</time>
      </trkpt>
      <trkpt lat="46.15478" lon="6.67298">
        <ele>1236</ele>
        <time>2000-01-01T01:13:29.000Z</time>
      </trkpt>
      <trkpt lat="46.15498" lon="6.67253">
        <ele>1233</ele>
        <time>2000-01-01T01:13:39.000Z</time>
      </trkpt>
      <trkpt lat="46.15531" lon="6.6718">
        <ele>1228</ele>
        <time>2000-01-01T01:13:49.000Z</time>
      </trkpt>
      <trkpt lat="46.15526" lon="6.67146">
        <ele>1227</ele>
        <time>2000-01-01T01:13:59.000Z</time>
      </trkpt>
      <trkpt lat="46.15503" lon="6.67107">
        <ele>1226</ele>
        <time>2000-01-01T01:14:09.000Z</time>
      </trkpt>
      <trkpt lat="46.15477" lon="6.6706">
        <ele>1225</ele>
        <time>2000-01-01T01:14:19.000Z</time>
      </trkpt>
      <trkpt lat="46.15467" lon="6.67024">
        <ele>1221</ele>
        <time>2000-01-01T01:14:29.000Z</time>
      </trkpt>
      <trkpt lat="46.15448" lon="6.67001">
        <ele>1221</ele>
        <time>2000-01-01T01:14:39.000Z</time>
      </trkpt>
      <trkpt lat="46.15435" lon="6.6698">
        <ele>1216</ele>
        <time>2000-01-01T01:14:49.000Z</time>
      </trkpt>
      <trkpt lat="46.15413" lon="6.66959">
        <ele>1214</ele>
        <time>2000-01-01T01:14:59.000Z</time>
      </trkpt>
      <trkpt lat="46.15401" lon="6.66938">
        <ele>1211</ele>
        <time>2000-01-01T01:15:09.000Z</time>
      </trkpt>
      <trkpt lat="46.1541" lon="6.66925">
        <ele>1210</ele>
        <time>2000-01-01T01:15:19.000Z</time>
      </trkpt>
      <trkpt lat="46.15421" lon="6.66922">
        <ele>1208</ele>
        <time>2000-01-01T01:15:29.000Z</time>
      </trkpt>
      <trkpt lat="46.1544" lon="6.66928">
        <ele>1206</ele>
        <time>2000-01-01T01:15:39.000Z</time>
      </trkpt>
      <trkpt lat="46.15443" lon="6.66931">
        <ele>1208.3</ele>
        <time>2000-01-01T01:15:49.000Z</time>
      </trkpt>
      <trkpt lat="46.15479" lon="6.66941">
        <ele>1206</ele>
        <time>2000-01-01T01:15:59.000Z</time>
      </trkpt>
      <trkpt lat="46.15498" lon="6.66952">
        <ele>1205</ele>
        <time>2000-01-01T01:16:09.000Z</time>
      </trkpt>
      <trkpt lat="46.15528" lon="6.66959">
        <ele>1199</ele>
        <time>2000-01-01T01:16:19.000Z</time>
      </trkpt>
      <trkpt lat="46.15551" lon="6.6697">
        <ele>1198</ele>
        <time>2000-01-01T01:16:29.000Z</time>
      </trkpt>
      <trkpt lat="46.15568" lon="6.66976">
        <ele>1200.2</ele>
        <time>2000-01-01T01:16:39.000Z</time>
      </trkpt>
      <trkpt lat="46.15578" lon="6.66975">
        <ele>1198</ele>
        <time>2000-01-01T01:16:49.000Z</time>
      </trkpt>
      <trkpt lat="46.15583" lon="6.66969">
        <ele>1196.2</ele>
        <time>2000-01-01T01:16:59.000Z</time>
      </trkpt>
      <trkpt lat="46.15576" lon="6.66956">
        <ele>1194</ele>
        <time>2000-01-01T01:17:09.000Z</time>
      </trkpt>
      <trkpt lat="46.15561" lon="6.66947">
        <ele>1192</ele>
        <time>2000-01-01T01:17:19.000Z</time>
      </trkpt>
      <trkpt lat="46.15554" lon="6.6694">
        <ele>1193.4</ele>
        <time>2000-01-01T01:17:29.000Z</time>
      </trkpt>
      <trkpt lat="46.15552" lon="6.66932">
        <ele>1192.3</ele>
        <time>2000-01-01T01:17:39.000Z</time>
      </trkpt>
      <trkpt lat="46.15555" lon="6.66922">
        <ele>1190</ele>
        <time>2000-01-01T01:17:49.000Z</time>
      </trkpt>
      <trkpt lat="46.15576" lon="6.66918">
        <ele>1186</ele>
        <time>2000-01-01T01:17:59.000Z</time>
      </trkpt>
      <trkpt lat="46.15609" lon="6.66929">
        <ele>1183</ele>
        <time>2000-01-01T01:18:09.000Z</time>
      </trkpt>
      <trkpt lat="46.1562" lon="6.66927">
        <ele>1182.1</ele>
        <time>2000-01-01T01:18:19.000Z</time>
      </trkpt>
      <trkpt lat="46.15626" lon="6.66915">
        <ele>1180</ele>
        <time>2000-01-01T01:18:29.000Z</time>
      </trkpt>
      <trkpt lat="46.15627" lon="6.6691">
        <ele>1179.3</ele>
        <time>2000-01-01T01:18:39.000Z</time>
      </trkpt>
      <trkpt lat="46.15626" lon="6.66889">
        <ele>1178.3</ele>
        <time>2000-01-01T01:18:49.000Z</time>
      </trkpt>
      <trkpt lat="46.1563" lon="6.66885">
        <ele>1179</ele>
        <time>2000-01-01T01:18:59.000Z</time>
      </trkpt>
      <trkpt lat="46.15635" lon="6.66887">
        <ele>1176.6</ele>
        <time>2000-01-01T01:19:09.000Z</time>
      </trkpt>
      <trkpt lat="46.15641" lon="6.66891">
        <ele>1175.8</ele>
        <time>2000-01-01T01:19:19.000Z</time>
      </trkpt>
      <trkpt lat="46.15647" lon="6.66892">
        <ele>1175.1</ele>
        <time>2000-01-01T01:19:29.000Z</time>
      </trkpt>
      <trkpt lat="46.15648" lon="6.66886">
        <ele>1175</ele>
        <time>2000-01-01T01:19:39.000Z</time>
      </trkpt>
      <trkpt lat="46.15648" lon="6.66859">
        <ele>1173.2</ele>
        <time>2000-01-01T01:19:49.000Z</time>
      </trkpt>
      <trkpt lat="46.15648" lon="6.66841">
        <ele>1172</ele>
        <time>2000-01-01T01:19:59.000Z</time>
      </trkpt>
      <trkpt lat="46.1565" lon="6.66819">
        <ele>1170.4</ele>
        <time>2000-01-01T01:20:09.000Z</time>
      </trkpt>
      <trkpt lat="46.15664" lon="6.66814">
        <ele>1168</ele>
        <time>2000-01-01T01:20:19.000Z</time>
      </trkpt>
      <trkpt lat="46.1567" lon="6.66816">
        <ele>1167.5</ele>
        <time>2000-01-01T01:20:29.000Z</time>
      </trkpt>
      <trkpt lat="46.15636" lon="6.66764">
        <ele>1168</ele>
        <time>2000-01-01T01:20:39.000Z</time>
      </trkpt>
    </trkseg>
  </trk>
</gpx>